sensor_id;sensor_type;location;lat;lon;timestamp;pressure;altitude;pressure_sealevel;temperature;humidity
75447;BME280;64024;55.820;37.574;2023-06-05T00:01:36;99175.56;;;20.96;32.16
75447;BME280;64024;55.820;37.574;2023-06-05T00:04:02;99173.97;;;20.95;32.04
75447;BME280;64024;55.820;37.574;2023-06-05T00:06:28;99174.78;;;20.95;31.74
75447;BME280;64024;55.820;37.574;2023-06-05T00:08:54;99175.28;;;20.97;31.99
75447;BME280;64024;55.820;37.574;2023-06-05T00:11:20;99168.25;;;21.01;32.08
75447;BME280;64024;55.820;37.574;2023-06-05T00:13:47;99168.50;;;21.05;31.96
75447;BME280;64024;55.820;37.574;2023-06-05T00:16:14;99169.56;;;21.09;32.02
75447;BME280;64024;55.820;37.574;2023-06-05T00:18:40;99165.22;;;21.13;32.19
75447;BME280;64024;55.820;37.574;2023-06-05T00:21:06;99164.66;;;21.16;32.16
75447;BME280;64024;55.820;37.574;2023-06-05T00:23:32;99168.97;;;21.17;32.24
75447;BME280;64024;55.820;37.574;2023-06-05T00:25:58;99167.88;;;21.18;32.22
75447;BME280;64024;55.820;37.574;2023-06-05T00:28:24;99165.16;;;21.18;32.25
75447;BME280;64024;55.820;37.574;2023-06-05T00:30:51;99172.22;;;21.19;32.30
75447;BME280;64024;55.820;37.574;2023-06-05T00:33:17;99174.91;;;21.19;32.43
75447;BME280;64024;55.820;37.574;2023-06-05T00:35:42;99171.13;;;21.20;32.37
75447;BME280;64024;55.820;37.574;2023-06-05T00:38:08;99170.03;;;21.21;32.49
75447;BME280;64024;55.820;37.574;2023-06-05T00:40:34;99177.03;;;21.22;32.41
75447;BME280;64024;55.820;37.574;2023-06-05T00:43:00;99176.25;;;21.22;32.54
75447;BME280;64024;55.820;37.574;2023-06-05T00:45:26;99182.44;;;21.22;32.68
75447;BME280;64024;55.820;37.574;2023-06-05T00:47:52;99176.25;;;21.22;32.66
75447;BME280;64024;55.820;37.574;2023-06-05T00:50:17;99175.94;;;21.23;32.65
75447;BME280;64024;55.820;37.574;2023-06-05T00:52:48;99181.09;;;21.25;32.86
75447;BME280;64024;55.820;37.574;2023-06-05T00:55:14;99181.91;;;21.25;32.95
75447;BME280;64024;55.820;37.574;2023-06-05T00:57:40;99176.50;;;21.25;33.05
75447;BME280;64024;55.820;37.574;2023-06-05T01:00:07;99175.41;;;21.26;33.02
75447;BME280;64024;55.820;37.574;2023-06-05T01:02:35;99181.91;;;21.25;33.22
75447;BME280;64024;55.820;37.574;2023-06-05T01:05:02;99173.50;;;21.27;33.18
75447;BME280;64024;55.820;37.574;2023-06-05T01:07:31;99182.41;;;21.27;33.22
75447;BME280;64024;55.820;37.574;2023-06-05T01:09:59;99172.44;;;21.28;33.44
75447;BME280;64024;55.820;37.574;2023-06-05T01:15:02;99179.16;;;21.30;33.49
75447;BME280;64024;55.820;37.574;2023-06-05T01:17:28;99166.72;;;21.29;33.62
75447;BME280;64024;55.820;37.574;2023-06-05T01:19:56;99171.03;;;21.30;33.69
75447;BME280;64024;55.820;37.574;2023-06-05T01:22:25;99170.25;;;21.30;33.78
75447;BME280;64024;55.820;37.574;2023-06-05T01:24:51;99169.94;;;21.31;33.82
75447;BME280;64024;55.820;37.574;2023-06-05T01:32:57;99167.81;;;21.33;33.77
75447;BME280;64024;55.820;37.574;2023-06-05T01:35:29;99169.44;;;21.34;33.63
75447;BME280;64024;55.820;37.574;2023-06-05T01:38:00;99167.53;;;21.35;33.83
75447;BME280;64024;55.820;37.574;2023-06-05T01:40:30;99165.91;;;21.34;34.06
75447;BME280;64024;55.820;37.574;2023-06-05T01:42:57;99179.16;;;21.35;34.07
75447;BME280;64024;55.820;37.574;2023-06-05T01:45:24;99170.78;;;21.37;34.19
75447;BME280;64024;55.820;37.574;2023-06-05T01:47:50;99175.38;;;21.37;34.18
75447;BME280;64024;55.820;37.574;2023-06-05T01:50:17;99179.69;;;21.38;34.30
75447;BME280;64024;55.820;37.574;2023-06-05T01:52:43;99185.91;;;21.38;34.21
75447;BME280;64024;55.820;37.574;2023-06-05T01:55:29;99178.03;;;21.42;34.38
75447;BME280;64024;55.820;37.574;2023-06-05T01:57:55;99179.13;;;21.41;34.21
75447;BME280;64024;55.820;37.574;2023-06-05T02:00:21;99183.44;;;21.42;34.21
75447;BME280;64024;55.820;37.574;2023-06-05T02:02:47;99188.84;;;21.42;34.19
75447;BME280;64024;55.820;37.574;2023-06-05T02:05:15;99189.66;;;21.42;34.34
75447;BME280;64024;55.820;37.574;2023-06-05T02:07:45;99180.44;;;21.43;34.49
75447;BME280;64024;55.820;37.574;2023-06-05T02:10:24;99185.31;;;21.46;34.22
75447;BME280;64024;55.820;37.574;2023-06-05T02:12:50;99178.28;;;21.45;34.39
75447;BME280;64024;55.820;37.574;2023-06-05T02:15:16;99195.31;;;21.46;34.37
75447;BME280;64024;55.820;37.574;2023-06-05T02:17:43;99186.41;;;21.45;34.53
75447;BME280;64024;55.820;37.574;2023-06-05T02:20:16;99188.81;;;21.47;34.47
75447;BME280;64024;55.820;37.574;2023-06-05T02:22:42;99186.91;;;21.47;34.63
75447;BME280;64024;55.820;37.574;2023-06-05T02:25:08;99186.09;;;21.47;34.56
75447;BME280;64024;55.820;37.574;2023-06-05T02:27:36;99185.84;;;21.48;34.51
75447;BME280;64024;55.820;37.574;2023-06-05T02:30:02;99192.88;;;21.49;34.62
75447;BME280;64024;55.820;37.574;2023-06-05T02:32:28;99190.97;;;21.50;34.54
75447;BME280;64024;55.820;37.574;2023-06-05T02:34:57;99195.56;;;21.49;34.79
75447;BME280;64024;55.820;37.574;2023-06-05T02:37:24;99195.28;;;21.51;34.68
75447;BME280;64024;55.820;37.574;2023-06-05T02:39:50;99191.69;;;21.60;34.53
75447;BME280;64024;55.820;37.574;2023-06-05T02:42:15;99193.06;;;21.58;34.56
75447;BME280;64024;55.820;37.574;2023-06-05T02:44:42;99197.13;;;21.55;34.65
75447;BME280;64024;55.820;37.574;2023-06-05T02:47:07;99200.94;;;21.54;34.73
75447;BME280;64024;55.820;37.574;2023-06-05T02:49:33;99202.84;;;21.54;34.65
75447;BME280;64024;55.820;37.574;2023-06-05T02:51:59;99214.97;;;21.56;34.71
75447;BME280;64024;55.820;37.574;2023-06-05T02:54:25;99200.66;;;21.56;34.82
75447;BME280;64024;55.820;37.574;2023-06-05T02:56:54;99206.31;;;21.59;34.66
75447;BME280;64024;55.820;37.574;2023-06-05T02:59:22;99206.84;;;21.62;34.69
75447;BME280;64024;55.820;37.574;2023-06-05T03:01:50;99201.94;;;21.64;34.94
75447;BME280;64024;55.820;37.574;2023-06-05T03:04:17;99198.16;;;21.65;34.90
75447;BME280;64024;55.820;37.574;2023-06-05T03:06:52;99205.69;;;21.68;35.06
75447;BME280;64024;55.820;37.574;2023-06-05T03:09:22;99201.91;;;21.69;35.03
75447;BME280;64024;55.820;37.574;2023-06-05T03:11:47;99197.03;;;21.71;35.19
75447;BME280;64024;55.820;37.574;2023-06-05T03:14:13;99197.53;;;21.73;35.41
75447;BME280;64024;55.820;37.574;2023-06-05T03:16:39;99200.00;;;21.74;35.31
75447;BME280;64024;55.820;37.574;2023-06-05T03:19:09;99206.44;;;21.78;35.39
75447;BME280;64024;55.820;37.574;2023-06-05T03:21:37;99206.97;;;21.80;35.34
75447;BME280;64024;55.820;37.574;2023-06-05T03:24:04;99209.59;;;21.91;35.24
75447;BME280;64024;55.820;37.574;2023-06-05T03:26:31;99206.34;;;21.89;35.21
75447;BME280;64024;55.820;37.574;2023-06-05T03:28:58;99205.56;;;21.88;35.44
75447;BME280;64024;55.820;37.574;2023-06-05T03:31:24;99208.25;;;21.88;35.23
75447;BME280;64024;55.820;37.574;2023-06-05T03:33:50;99203.66;;;21.89;35.19
75447;BME280;64024;55.820;37.574;2023-06-05T03:36:16;99209.88;;;21.89;35.75
75447;BME280;64024;55.820;37.574;2023-06-05T03:38:43;99199.84;;;21.90;35.92
75447;BME280;64024;55.820;37.574;2023-06-05T03:41:09;99207.69;;;21.91;35.94
75447;BME280;64024;55.820;37.574;2023-06-05T03:43:35;99199.59;;;21.91;35.98
75447;BME280;64024;55.820;37.574;2023-06-05T03:46:02;99204.69;;;21.93;35.89
75447;BME280;64024;55.820;37.574;2023-06-05T03:48:28;99204.69;;;21.93;36.07
75447;BME280;64024;55.820;37.574;2023-06-05T03:50:54;99203.34;;;21.95;35.95
75447;BME280;64024;55.820;37.574;2023-06-05T03:53:22;99199.03;;;21.94;35.67
75447;BME280;64024;55.820;37.574;2023-06-05T03:55:48;99197.91;;;21.95;35.88
75447;BME280;64024;55.820;37.574;2023-06-05T03:58:15;99203.03;;;21.97;36.11
75447;BME280;64024;55.820;37.574;2023-06-05T04:00:48;99186.53;;;21.98;36.01
75447;BME280;64024;55.820;37.574;2023-06-05T04:03:15;99180.28;;;21.98;36.05
75447;BME280;64024;55.820;37.574;2023-06-05T04:05:41;99180.28;;;21.98;36.14
75447;BME280;64024;55.820;37.574;2023-06-05T04:08:07;99179.50;;;21.97;36.20
75447;BME280;64024;55.820;37.574;2023-06-05T04:10:35;99179.22;;;21.99;36.18
75447;BME280;64024;55.820;37.574;2023-06-05T04:13:01;99186.25;;;22.00;36.11
75447;BME280;64024;55.820;37.574;2023-06-05T04:15:28;99192.16;;;22.02;36.21
75447;BME280;64024;55.820;37.574;2023-06-05T04:17:54;99190.28;;;22.02;36.39
75447;BME280;64024;55.820;37.574;2023-06-05T04:20:20;99195.41;;;22.04;36.43
75447;BME280;64024;55.820;37.574;2023-06-05T04:22:46;99191.84;;;22.08;36.39
75447;BME280;64024;55.820;37.574;2023-06-05T04:25:12;99191.81;;;22.14;36.45
75447;BME280;64024;55.820;37.574;2023-06-05T04:27:39;99191.50;;;22.20;36.43
75447;BME280;64024;55.820;37.574;2023-06-05T04:30:06;99193.34;;;22.25;36.43
75447;BME280;64024;55.820;37.574;2023-06-05T04:32:32;99195.19;;;22.29;36.40
75447;BME280;64024;55.820;37.574;2023-06-05T04:35:05;99196.53;;;22.32;36.60
75447;BME280;64024;55.820;37.574;2023-06-05T04:37:35;99194.34;;;22.34;36.65
75447;BME280;64024;55.820;37.574;2023-06-05T04:40:01;99203.25;;;22.34;36.82
75447;BME280;64024;55.820;37.574;2023-06-05T04:42:36;99203.25;;;22.34;36.67
75447;BME280;64024;55.820;37.574;2023-06-05T04:45:04;99197.84;;;22.34;36.61
75447;BME280;64024;55.820;37.574;2023-06-05T04:47:31;99200.56;;;22.34;36.74
75447;BME280;64024;55.820;37.574;2023-06-05T04:50:04;99194.06;;;22.36;36.96
75447;BME280;64024;55.820;37.574;2023-06-05T04:52:31;99192.44;;;22.34;36.84
75447;BME280;64024;55.820;37.574;2023-06-05T04:54:58;99194.88;;;22.36;36.74
75447;BME280;64024;55.820;37.574;2023-06-05T04:57:25;99194.06;;;22.36;36.98
75447;BME280;64024;55.820;37.574;2023-06-05T04:59:52;99197.56;;;22.36;36.94
75447;BME280;64024;55.820;37.574;2023-06-05T05:02:18;99201.09;;;22.37;36.98
75447;BME280;64024;55.820;37.574;2023-06-05T05:04:44;99200.28;;;22.36;36.88
75447;BME280;64024;55.820;37.574;2023-06-05T05:07:10;99197.28;;;22.38;37.12
75447;BME280;64024;55.820;37.574;2023-06-05T05:09:41;99193.78;;;22.37;36.94
75447;BME280;64024;55.820;37.574;2023-06-05T05:12:07;99196.19;;;22.39;37.21
75447;BME280;64024;55.820;37.574;2023-06-05T05:14:33;99192.41;;;22.40;36.94
75447;BME280;64024;55.820;37.574;2023-06-05T05:16:59;99193.19;;;22.40;36.99
75447;BME280;64024;55.820;37.574;2023-06-05T05:19:27;99192.09;;;22.41;37.09
75447;BME280;64024;55.820;37.574;2023-06-05T05:21:52;99203.69;;;22.47;37.20
75447;BME280;64024;55.820;37.574;2023-06-05T05:24:18;99205.00;;;22.49;37.37
75447;BME280;64024;55.820;37.574;2023-06-05T05:26:44;99202.81;;;22.51;37.35
75447;BME280;64024;55.820;37.574;2023-06-05T05:29:10;99198.72;;;22.54;37.58
75447;BME280;64024;55.820;37.574;2023-06-05T05:31:36;99200.06;;;22.56;37.50
75447;BME280;64024;55.820;37.574;2023-06-05T05:34:02;99200.88;;;22.57;37.47
75447;BME280;64024;55.820;37.574;2023-06-05T05:36:28;99204.63;;;22.61;37.47
75447;BME280;64024;55.820;37.574;2023-06-05T05:38:54;99209.44;;;22.64;37.52
75447;BME280;64024;55.820;37.574;2023-06-05T05:41:20;99211.31;;;22.69;37.69
75447;BME280;64024;55.820;37.574;2023-06-05T05:43:46;99206.41;;;22.71;37.74
75447;BME280;64024;55.820;37.574;2023-06-05T05:46:12;99212.34;;;22.73;38.11
75447;BME280;64024;55.820;37.574;2023-06-05T05:48:38;99203.13;;;22.74;38.17
75447;BME280;64024;55.820;37.574;2023-06-05T05:51:07;99212.06;;;22.74;38.25
75447;BME280;64024;55.820;37.574;2023-06-05T05:53:33;99215.88;;;22.73;38.19
75447;BME280;64024;55.820;37.574;2023-06-05T05:55:59;99213.97;;;22.74;38.40
75447;BME280;64024;55.820;37.574;2023-06-05T05:58:25;99219.06;;;22.75;38.23
75447;BME280;64024;55.820;37.574;2023-06-05T06:00:51;99214.47;;;22.76;38.16
75447;BME280;64024;55.820;37.574;2023-06-05T06:03:18;99213.66;;;22.75;38.35
75447;BME280;64024;55.820;37.574;2023-06-05T06:05:44;99208.78;;;22.77;38.25
75447;BME280;64024;55.820;37.574;2023-06-05T06:08:11;99216.91;;;22.77;38.31
75447;BME280;64024;55.820;37.574;2023-06-05T06:10:37;99211.97;;;22.79;38.30
75447;BME280;64024;55.820;37.574;2023-06-05T06:13:03;99214.44;;;22.81;38.77
75447;BME280;64024;55.820;37.574;2023-06-05T06:15:32;99204.09;;;22.83;38.71
75447;BME280;64024;55.820;37.574;2023-06-05T06:17:58;99206.22;;;22.86;38.38
75447;BME280;64024;55.820;37.574;2023-06-05T06:20:31;99207.28;;;22.90;38.73
75447;BME280;64024;55.820;37.574;2023-06-05T06:22:57;99199.66;;;22.92;38.69
75447;BME280;64024;55.820;37.574;2023-06-05T06:25:22;99207.53;;;22.94;38.68
75447;BME280;64024;55.820;37.574;2023-06-05T06:27:51;99212.34;;;22.97;38.90
75447;BME280;64024;55.820;37.574;2023-06-05T06:30:18;99207.94;;;23.01;39.34
75447;BME280;64024;55.820;37.574;2023-06-05T06:32:45;99206.56;;;23.03;39.78
75447;BME280;64024;55.820;37.574;2023-06-05T06:35:11;99216.03;;;23.06;40.01
75447;BME280;64024;55.820;37.574;2023-06-05T06:37:42;99207.63;;;23.07;40.00
75447;BME280;64024;55.820;37.574;2023-06-05T06:40:09;99207.84;;;23.11;40.12
75447;BME280;64024;55.820;37.574;2023-06-05T06:42:38;99206.44;;;23.14;40.60
75447;BME280;64024;55.820;37.574;2023-06-05T06:45:04;99195.00;;;23.17;40.22
75447;BME280;64024;55.820;37.574;2023-06-05T06:47:30;99202.03;;;23.18;40.39
75447;BME280;64024;55.820;37.574;2023-06-05T06:49:56;99202.56;;;23.20;40.73
75447;BME280;64024;55.820;37.574;2023-06-05T06:52:22;99192.22;;;23.22;40.56
75447;BME280;64024;55.820;37.574;2023-06-05T06:54:49;99198.97;;;23.24;40.28
75447;BME280;64024;55.820;37.574;2023-06-05T06:57:15;99197.88;;;23.25;40.49
75447;BME280;64024;55.820;37.574;2023-06-05T06:59:41;99187.56;;;23.27;40.27
75447;BME280;64024;55.820;37.574;2023-06-05T07:02:14;99188.06;;;23.29;40.32
75447;BME280;64024;55.820;37.574;2023-06-05T07:04:40;99190.63;;;23.40;39.99
75447;BME280;64024;55.820;37.574;2023-06-05T07:07:13;99186.91;;;23.36;40.14
75447;BME280;64024;55.820;37.574;2023-06-05T07:09:40;99188.81;;;23.35;40.47
75447;BME280;64024;55.820;37.574;2023-06-05T07:12:11;99179.03;;;23.34;40.41
75447;BME280;64024;55.820;37.574;2023-06-05T07:14:38;99179.03;;;23.34;40.07
75447;BME280;64024;55.820;37.574;2023-06-05T07:17:04;99182.28;;;23.36;40.43
75447;BME280;64024;55.820;37.574;2023-06-05T07:19:31;99180.06;;;23.38;40.42
75447;BME280;64024;55.820;37.574;2023-06-05T07:22:00;99166.22;;;23.40;40.05
75447;BME280;64024;55.820;37.574;2023-06-05T07:24:27;99184.91;;;23.41;40.03
75447;BME280;64024;55.820;37.574;2023-06-05T07:26:59;99186.50;;;23.42;40.24
75447;BME280;64024;55.820;37.574;2023-06-05T07:29:25;99187.31;;;23.43;40.09
75447;BME280;64024;55.820;37.574;2023-06-05T07:31:53;99190.84;;;23.43;40.17
75447;BME280;64024;55.820;37.574;2023-06-05T07:34:20;99178.09;;;23.44;40.12
75447;BME280;64024;55.820;37.574;2023-06-05T07:36:47;99191.34;;;23.45;40.05
75447;BME280;64024;55.820;37.574;2023-06-05T07:39:17;99184.56;;;23.48;39.96
75447;BME280;64024;55.820;37.574;2023-06-05T07:41:43;99189.66;;;23.49;39.66
75447;BME280;64024;55.820;37.574;2023-06-05T07:44:13;99193.72;;;23.52;39.50
75447;BME280;64024;55.820;37.574;2023-06-05T07:46:40;99189.59;;;23.54;39.39
75447;BME280;64024;55.820;37.574;2023-06-05T07:49:06;99188.19;;;23.57;39.47
75447;BME280;64024;55.820;37.574;2023-06-05T07:51:33;99194.44;;;23.57;39.41
75447;BME280;64024;55.820;37.574;2023-06-05T07:54:12;99188.41;;;23.61;39.60
75447;BME280;64024;55.820;37.574;2023-06-05T07:56:39;99190.03;;;23.62;39.47
75447;BME280;64024;55.820;37.574;2023-06-05T07:59:06;99179.16;;;23.62;39.47
75447;BME280;64024;55.820;37.574;2023-06-05T08:01:33;99179.97;;;23.62;39.50
75447;BME280;64024;55.820;37.574;2023-06-05T08:04:03;99176.97;;;23.64;38.76
75447;BME280;64024;55.820;37.574;2023-06-05T08:06:29;99177.25;;;23.62;38.10
75447;BME280;64024;55.820;37.574;2023-06-05T08:08:56;99181.66;;;23.58;37.31
75447;BME280;64024;55.820;37.574;2023-06-05T08:11:21;99186.38;;;23.52;37.32
75447;BME280;64024;55.820;37.574;2023-06-05T08:13:47;99182.63;;;23.48;37.14
75447;BME280;64024;55.820;37.574;2023-06-05T08:16:13;99176.41;;;23.48;36.89
75447;BME280;64024;55.820;37.574;2023-06-05T08:18:41;99179.13;;;23.48;37.22
75447;BME280;64024;55.820;37.574;2023-06-05T08:21:07;99166.84;;;23.50;37.62
75447;BME280;64024;55.820;37.574;2023-06-05T08:23:33;99171.22;;;23.51;38.07
75447;BME280;64024;55.820;37.574;2023-06-05T08:25:58;99175.22;;;23.54;37.86
75447;BME280;64024;55.820;37.574;2023-06-05T08:28:24;99175.75;;;23.56;37.84
75447;BME280;64024;55.820;37.574;2023-06-05T08:30:50;99175.13;;;23.59;37.13
75447;BME280;64024;55.820;37.574;2023-06-05T08:33:20;99166.41;;;23.62;37.16
75447;BME280;64024;55.820;37.574;2023-06-05T08:35:46;99171.28;;;23.65;36.86
75447;BME280;64024;55.820;37.574;2023-06-05T08:38:12;99168.25;;;23.67;36.44
75447;BME280;64024;55.820;37.574;2023-06-05T08:40:38;99154.69;;;23.67;36.33
75447;BME280;64024;55.820;37.574;2023-06-05T08:43:04;99163.16;;;23.65;35.56
75447;BME280;64024;55.820;37.574;2023-06-05T08:45:31;99153.66;;;23.63;35.46
75447;BME280;64024;55.820;37.574;2023-06-05T08:47:59;99150.44;;;23.61;35.43
75447;BME280;64024;55.820;37.574;2023-06-05T08:50:27;99154.75;;;23.62;35.20
75447;BME280;64024;55.820;37.574;2023-06-05T08:52:56;99150.66;;;23.64;35.24
75447;BME280;64024;55.820;37.574;2023-06-05T08:55:24;99137.91;;;23.65;35.40
75447;BME280;64024;55.820;37.574;2023-06-05T08:57:51;99137.31;;;23.68;35.70
75447;BME280;64024;55.820;37.574;2023-06-05T09:00:18;99137.03;;;23.69;34.91
75447;BME280;64024;55.820;37.574;2023-06-05T09:02:44;99137.84;;;23.70;34.93
75447;BME280;64024;55.820;37.574;2023-06-05T09:05:17;99137.53;;;23.71;35.09
75447;BME280;64024;55.820;37.574;2023-06-05T09:07:43;99136.72;;;23.71;34.76
75447;BME280;64024;55.820;37.574;2023-06-05T09:10:22;99123.97;;;23.71;35.05
75447;BME280;64024;55.820;37.574;2023-06-05T09:13:03;99131.81;;;23.73;35.47
75447;BME280;64024;55.820;37.574;2023-06-05T09:15:31;99123.97;;;23.71;35.23
75447;BME280;64024;55.820;37.574;2023-06-05T09:20:29;99127.47;;;23.72;35.12
75447;BME280;64024;55.820;37.574;2023-06-05T09:22:56;99129.69;;;23.70;35.59
75447;BME280;64024;55.820;37.574;2023-06-05T09:25:22;99128.09;;;23.69;35.69
75447;BME280;64024;55.820;37.574;2023-06-05T09:28:18;99124.25;;;23.70;35.84
75447;BME280;64024;55.820;37.574;2023-06-05T09:30:54;99121.03;;;23.68;35.07
75447;BME280;64024;55.820;37.574;2023-06-05T09:33:22;99117.09;;;23.60;34.98
75447;BME280;64024;55.820;37.574;2023-06-05T09:36:12;99121.28;;;23.52;34.48
75447;BME280;64024;55.820;37.574;2023-06-05T09:38:40;99112.13;;;23.48;35.07
75447;BME280;64024;55.820;37.574;2023-06-05T09:41:07;99112.69;;;23.45;35.18
75447;BME280;64024;55.820;37.574;2023-06-05T09:43:33;99151.47;;;23.46;35.49
75447;BME280;64024;55.820;37.574;2023-06-05T09:46:09;99145.78;;;23.47;36.03
75447;BME280;64024;55.820;37.574;2023-06-05T09:48:35;99160.13;;;23.48;35.99
75447;BME280;64024;55.820;37.574;2023-06-05T09:53:44;99140.25;;;23.52;36.51
75447;BME280;64024;55.820;37.574;2023-06-05T09:56:12;99150.00;;;23.53;36.31
75447;BME280;64024;55.820;37.574;2023-06-05T09:58:43;99138.66;;;23.51;35.63
75447;BME280;64024;55.820;37.574;2023-06-05T10:01:12;99139.72;;;23.50;35.46
75447;BME280;64024;55.820;37.574;2023-06-05T10:03:40;99140.03;;;23.49;35.35
75447;BME280;64024;55.820;37.574;2023-06-05T10:06:08;99148.19;;;23.49;35.58
75447;BME280;64024;55.820;37.574;2023-06-05T10:08:34;99144.13;;;23.46;35.36
75447;BME280;64024;55.820;37.574;2023-06-05T10:11:01;99143.34;;;23.46;35.68
75447;BME280;64024;55.820;37.574;2023-06-05T10:13:28;99139.03;;;23.45;35.74
75447;BME280;64024;55.820;37.574;2023-06-05T10:15:55;99131.19;;;23.43;35.65
75447;BME280;64024;55.820;37.574;2023-06-05T10:18:22;99146.94;;;23.41;35.74
75447;BME280;64024;55.820;37.574;2023-06-05T10:20:48;99141.28;;;23.38;35.70
75447;BME280;64024;55.820;37.574;2023-06-05T10:23:17;99137.84;;;23.32;35.55
75447;BME280;64024;55.820;37.574;2023-06-05T10:25:46;99136.97;;;23.18;35.60
75447;BME280;64024;55.820;37.574;2023-06-05T10:39:28;99115.78;;;22.82;35.16
75447;BME280;64024;55.820;37.574;2023-06-05T10:41:54;99105.81;;;22.77;34.86
75447;BME280;64024;55.820;37.574;2023-06-05T10:44:43;99114.22;;;22.76;35.02
75447;BME280;64024;55.820;37.574;2023-06-05T10:52:50;99114.19;;;22.57;35.00
75447;BME280;64024;55.820;37.574;2023-06-05T10:55:16;99114.44;;;22.61;35.50
75447;BME280;64024;55.820;37.574;2023-06-05T11:00:27;99125.34;;;22.74;35.73
75447;BME280;64024;55.820;37.574;2023-06-05T11:02:53;99129.91;;;22.79;35.66
75447;BME280;64024;55.820;37.574;2023-06-05T11:05:20;99131.72;;;22.83;36.00
75447;BME280;64024;55.820;37.574;2023-06-05T11:07:46;99138.03;;;22.79;35.83
75447;BME280;64024;55.820;37.574;2023-06-05T11:10:19;99133.81;;;22.68;35.92
75447;BME280;64024;55.820;37.574;2023-06-05T11:17:48;99138.03;;;22.55;35.81
75447;BME280;64024;55.820;37.574;2023-06-05T11:28:05;99117.47;;;22.54;36.87
75447;BME280;64024;55.820;37.574;2023-06-05T11:30:42;99118.75;;;22.62;36.88
75447;BME280;64024;55.820;37.574;2023-06-05T11:33:14;99123.53;;;22.70;36.92
75447;BME280;64024;55.820;37.574;2023-06-05T11:35:48;99122.88;;;22.78;37.89
75447;BME280;64024;55.820;37.574;2023-06-05T11:38:18;99118.97;;;22.84;37.95
75447;BME280;64024;55.820;37.574;2023-06-05T11:40:45;99110.53;;;22.91;37.97
75447;BME280;64024;55.820;37.574;2023-06-05T11:43:12;99118.28;;;22.97;38.29
75447;BME280;64024;55.820;37.574;2023-06-05T11:45:40;99104.69;;;23.02;37.99
75447;BME280;64024;55.820;37.574;2023-06-05T11:48:12;99124.06;;;23.10;38.67
75447;BME280;64024;55.820;37.574;2023-06-05T11:50:50;99116.97;;;23.14;38.28
75447;BME280;64024;55.820;37.574;2023-06-05T11:53:20;99128.56;;;23.19;38.49
75447;BME280;64024;55.820;37.574;2023-06-05T11:55:46;99129.06;;;23.21;38.75
75447;BME280;64024;55.820;37.574;2023-06-05T11:58:21;99137.41;;;23.25;38.92
75447;BME280;64024;55.820;37.574;2023-06-05T12:00:48;99150.66;;;23.26;38.38
75447;BME280;64024;55.820;37.574;2023-06-05T12:03:20;99150.41;;;23.28;38.66
75447;BME280;64024;55.820;37.574;2023-06-05T12:05:47;99154.41;;;23.30;38.80
75447;BME280;64024;55.820;37.574;2023-06-05T12:08:27;99161.16;;;23.33;38.87
75447;BME280;64024;55.820;37.574;2023-06-05T12:10:57;99166.00;;;23.36;38.30
75447;BME280;64024;55.820;37.574;2023-06-05T12:13:50;99166.72;;;23.42;38.51
75447;BME280;64024;55.820;37.574;2023-06-05T12:16:17;99168.84;;;23.45;38.55
75447;BME280;64024;55.820;37.574;2023-06-05T12:18:44;99158.50;;;23.47;38.27
75447;BME280;64024;55.820;37.574;2023-06-05T12:21:29;99149.50;;;23.51;38.07
75447;BME280;64024;55.820;37.574;2023-06-05T12:24:02;99151.13;;;23.52;38.00
75447;BME280;64024;55.820;37.574;2023-06-05T12:26:28;99152.41;;;23.55;38.06
75447;BME280;64024;55.820;37.574;2023-06-05T12:29:04;99151.03;;;23.57;37.36
75447;BME280;64024;55.820;37.574;2023-06-05T12:31:34;99153.16;;;23.61;37.47
75447;BME280;64024;55.820;37.574;2023-06-05T12:34:02;99146.03;;;23.65;37.17
75447;BME280;64024;55.820;37.574;2023-06-05T12:36:30;99144.66;;;23.67;36.93
75447;BME280;64024;55.820;37.574;2023-06-05T12:39:02;99143.25;;;23.70;37.12
75447;BME280;64024;55.820;37.574;2023-06-05T12:41:31;99145.66;;;23.71;37.24
75447;BME280;64024;55.820;37.574;2023-06-05T12:44:03;99133.22;;;23.70;36.65
75447;BME280;64024;55.820;37.574;2023-06-05T12:46:30;99135.13;;;23.70;36.84
75447;BME280;64024;55.820;37.574;2023-06-05T12:49:01;99131.28;;;23.71;36.85
75447;BME280;64024;55.820;37.574;2023-06-05T12:51:28;99129.59;;;23.75;36.55
75447;BME280;64024;55.820;37.574;2023-06-05T12:53:57;99132.53;;;23.78;36.85
75447;BME280;64024;55.820;37.574;2023-06-05T12:56:23;99129.72;;;23.84;36.68
75447;BME280;64024;55.820;37.574;2023-06-05T12:58:55;99129.94;;;23.87;36.71
75447;BME280;64024;55.820;37.574;2023-06-05T13:01:22;99122.31;;;23.89;36.93
75447;BME280;64024;55.820;37.574;2023-06-05T13:03:48;99121.69;;;23.92;36.91
75447;BME280;64024;55.820;37.574;2023-06-05T13:06:14;99122.22;;;23.94;36.77
75447;BME280;64024;55.820;37.574;2023-06-05T13:08:40;99121.09;;;23.95;36.21
75447;BME280;64024;55.820;37.574;2023-06-05T13:11:06;99117.00;;;23.98;36.03
75447;BME280;64024;55.820;37.574;2023-06-05T13:13:31;99122.13;;;23.99;35.52
75447;BME280;64024;55.820;37.574;2023-06-05T13:16:00;99123.72;;;24.00;35.46
75447;BME280;64024;55.820;37.574;2023-06-05T13:18:27;99128.56;;;24.03;35.37
75447;BME280;64024;55.820;37.574;2023-06-05T13:20:54;99109.25;;;24.05;35.17
75447;BME280;64024;55.820;37.574;2023-06-05T13:23:19;99117.59;;;24.09;34.93
75447;BME280;64024;55.820;37.574;2023-06-05T13:25:45;99115.41;;;24.11;34.94
75447;BME280;64024;55.820;37.574;2023-06-05T13:28:11;99111.56;;;24.12;34.57
75447;BME280;64024;55.820;37.574;2023-06-05T13:30:37;99105.03;;;24.13;34.63
75447;BME280;64024;55.820;37.574;2023-06-05T13:33:03;99106.66;;;24.14;34.39
75447;BME280;64024;55.820;37.574;2023-06-05T13:35:28;99106.66;;;24.14;34.06
75447;BME280;64024;55.820;37.574;2023-06-05T13:37:54;99101.22;;;24.14;33.99
75447;BME280;64024;55.820;37.574;2023-06-05T13:40:19;99097.09;;;24.16;34.59